Time;durP1;ratioP1;P1;durP2;ratioP2;P2;SDS_P1;SDS_P2;PMS_P1;PMS_P2;Temp;Humidity;BMP_temperature;BMP_pressure;BME280_temperature;BME280_humidity;BME280_pressure;Samples;Min_cycle;Max_cycle;Signal;HPM_P1;HPM_P2
2023/06/04 00:00:28;;;;;;;6.38;4.88;;;16.70;68.50;;;;;;6259708;28;20056;-78
2023/06/04 00:03:32;;;;;;;6.35;4.13;;;16.70;68.60;;;;;;6259288;28;20057;-79
2023/06/04 00:06:33;;;;;;;25.70;5.93;;;16.60;68.70;;;;;;6259426;28;20068;-79
2023/06/04 00:09:35;;;;;;;7.80;4.88;;;16.50;68.60;;;;;;6258224;28;20045;-79
2023/06/04 00:12:37;;;;;;;5.68;4.13;;;16.50;68.70;;;;;;6257822;28;20049;-78
2023/06/04 00:15:38;;;;;;;8.20;4.20;;;16.40;68.90;;;;;;6255601;28;20068;-79
2023/06/04 00:18:41;;;;;;;5.28;4.30;;;16.40;69.00;;;;;;6256920;28;20400;-78
2023/06/04 00:21:43;;;;;;;8.65;4.20;;;16.40;69.30;;;;;;6257023;28;20423;-79
2023/06/04 00:24:45;;;;;;;6.25;3.53;;;16.40;69.30;;;;;;6257253;28;20444;-79
2023/06/04 00:27:47;;;;;;;7.18;3.83;;;16.30;69.30;;;;;;6256583;28;20063;-79
2023/06/04 00:30:48;;;;;;;6.22;4.03;;;16.20;69.30;;;;;;6254135;28;20059;-78
2023/06/04 00:33:51;;;;;;;7.32;3.83;;;16.20;69.40;;;;;;6250416;28;20046;-80
2023/06/04 00:36:53;;;;;;;8.27;4.03;;;16.20;69.50;;;;;;6247505;28;20037;-78
2023/06/04 00:39:55;;;;;;;6.57;3.80;;;16.20;69.50;;;;;;6249960;28;20045;-79
2023/06/04 00:42:57;;;;;;;5.13;4.28;;;16.10;69.50;;;;;;6250205;28;20045;-80
2023/06/04 00:46:00;;;;;;;7.32;3.88;;;16.00;69.30;;;;;;6252649;28;20045;-80
2023/06/04 00:49:03;;;;;;;4.75;4.30;;;16.00;69.40;;;;;;6251949;28;20045;-81
2023/06/04 00:52:06;;;;;;;8.93;4.13;;;15.90;69.30;;;;;;6248355;28;20049;-78
2023/06/04 00:55:09;;;;;;;4.85;3.35;;;15.90;69.30;;;;;;6248346;28;20049;-78
2023/06/04 00:58:12;;;;;;;5.85;3.28;;;15.80;69.30;;;;;;6248189;28;20057;-78
2023/06/04 01:01:23;;;;;;;6.78;5.40;;;15.80;69.40;;;;;;6249470;28;20373;-79
2023/06/04 01:04:31;;;;;;;4.95;4.20;;;15.70;69.50;;;;;;6250084;28;20045;-78
2023/06/04 01:07:33;;;;;;;5.95;3.40;;;15.80;69.60;;;;;;6245899;28;20216;-78
2023/06/04 01:10:35;;;;;;;6.80;3.90;;;15.70;69.50;;;;;;6244752;28;20057;-78
2023/06/04 01:13:36;;;;;;;5.20;3.90;;;15.70;69.50;;;;;;6246883;28;20056;-78
2023/06/04 01:16:43;;;;;;;5.68;3.63;;;15.60;69.50;;;;;;6246558;28;20056;-78
2023/06/04 01:20:14;;;;;;;3.78;2.83;;;15.60;69.50;;;;;;6245909;28;20230;-78
2023/06/04 01:23:33;;;;;;;6.72;3.90;;;15.60;69.40;;;;;;6246113;28;20044;-78
2023/06/04 01:26:36;;;;;;;4.22;3.63;;;15.60;69.20;;;;;;6246388;28;20173;-77
2023/06/04 01:29:38;;;;;;;7.28;3.75;;;15.60;69.00;;;;;;6245842;28;20483;-78
2023/06/04 01:32:39;;;;;;;4.40;3.00;;;15.50;68.90;;;;;;6248438;28;20054;-78
2023/06/04 01:35:42;;;;;;;3.75;3.15;;;15.50;68.80;;;;;;6248695;28;20045;-78
2023/06/04 01:38:45;;;;;;;5.25;3.55;;;15.50;68.80;;;;;;6247291;28;20064;-78
2023/06/04 01:41:46;;;;;;;4.13;2.75;;;15.40;68.60;;;;;;6246880;28;20056;-78
2023/06/04 01:44:48;;;;;;;4.15;2.72;;;15.40;68.60;;;;;;6245813;28;20052;-78
2023/06/04 01:47:50;;;;;;;3.70;2.72;;;15.40;68.40;;;;;;6246088;28;20045;-78
2023/06/04 01:50:53;;;;;;;4.32;3.90;;;15.30;68.30;;;;;;6246275;28;20053;-77
2023/06/04 01:53:55;;;;;;;3.25;2.95;;;15.30;68.50;;;;;;6246889;28;20060;-77
2023/06/04 01:56:56;;;;;;;3.25;2.88;;;15.20;68.30;;;;;;6245961;28;20044;-78
2023/06/04 01:59:58;;;;;;;8.38;3.08;;;15.20;68.30;;;;;;6245971;28;20049;-78
2023/06/04 02:03:00;;;;;;;3.13;2.30;;;15.10;68.10;;;;;;6245788;28;20479;-78
2023/06/04 02:06:04;;;;;;;4.07;3.67;;;15.10;67.90;;;;;;6247155;28;20503;-78
2023/06/04 02:09:06;;;;;;;6.07;2.97;;;15.10;68.10;;;;;;6245592;28;20594;-78
2023/06/04 02:12:08;;;;;;;2.92;2.70;;;15.10;68.20;;;;;;6247351;28;20057;-79
2023/06/04 02:15:11;;;;;;;4.18;2.88;;;15.00;67.90;;;;;;6247924;28;20421;-77
2023/06/04 02:18:20;;;;;;;3.58;2.90;;;15.00;68.00;;;;;;6254301;28;20044;-79
2023/06/04 02:21:23;;;;;;;5.40;2.90;;;14.90;67.90;;;;;;6251951;28;20041;-78
2023/06/04 02:24:25;;;;;;;7.20;3.03;;;14.90;68.00;;;;;;6253756;28;20053;-79
2023/06/04 02:27:27;;;;;;;3.88;2.28;;;14.80;67.90;;;;;;6247613;28;20046;-79
2023/06/04 02:30:29;;;;;;;6.10;2.28;;;14.80;67.90;;;;;;6248503;28;20049;-80
2023/06/04 02:33:31;;;;;;;2.30;1.70;;;14.80;67.80;;;;;;6248025;28;20160;-79
2023/06/04 02:36:35;;;;;;;5.93;3.00;;;14.70;67.90;;;;;;6247851;28;20400;-80
2023/06/04 02:39:36;;;;;;;4.15;2.67;;;14.70;68.00;;;;;;6247504;28;20049;-79
2023/06/04 02:42:38;;;;;;;3.42;2.45;;;14.60;68.00;;;;;;6247346;28;20049;-79
2023/06/04 02:45:40;;;;;;;7.57;2.38;;;14.60;68.00;;;;;;6248519;28;20049;-80
2023/06/04 02:48:41;;;;;;;7.15;3.45;;;14.60;67.90;;;;;;6247589;28;20515;-79
2023/06/04 02:51:45;;;;;;;4.80;2.47;;;14.60;67.80;;;;;;6252231;28;20528;-78
2023/06/04 02:54:47;;;;;;;6.30;2.83;;;14.50;68.00;;;;;;6255329;28;20049;-78
2023/06/04 02:57:48;;;;;;;3.28;2.60;;;14.50;68.10;;;;;;6255991;28;20052;-78
2023/06/04 03:00:50;;;;;;;4.53;1.88;;;14.50;68.00;;;;;;6245498;28;20045;-79
2023/06/04 03:03:52;;;;;;;4.07;2.72;;;14.50;67.80;;;;;;6248778;28;20053;-78
2023/06/04 03:06:57;;;;;;;3.58;2.25;;;14.40;67.90;;;;;;6253824;28;20049;-78
2023/06/04 03:09:59;;;;;;;2.60;2.15;;;14.40;67.90;;;;;;6256293;28;20045;-80
2023/06/04 03:13:01;;;;;;;4.43;1.85;;;14.40;67.80;;;;;;6253607;28;20041;-80
2023/06/04 03:16:03;;;;;;;3.83;2.17;;;14.40;67.90;;;;;;6245516;28;20420;-78
2023/06/04 03:19:05;;;;;;;3.30;1.90;;;14.40;67.70;;;;;;6245349;28;20080;-79
2023/06/04 03:22:10;;;;;;;5.20;1.98;;;14.40;67.50;;;;;;6245999;28;20049;-78
2023/06/04 03:25:12;;;;;;;2.17;1.70;;;14.40;67.50;;;;;;6245670;28;20397;-79
2023/06/04 03:28:14;;;;;;;3.50;1.95;;;14.40;67.50;;;;;;6245423;28;20061;-79
2023/06/04 03:31:15;;;;;;;2.50;2.20;;;14.40;67.50;;;;;;6246349;28;20496;-79
2023/06/04 03:34:17;;;;;;;4.22;2.17;;;14.40;67.50;;;;;;6251664;28;20045;-79
2023/06/04 03:37:20;;;;;;;3.65;2.33;;;14.40;67.30;;;;;;6252840;28;20037;-77
2023/06/04 03:40:22;;;;;;;2.88;2.08;;;14.40;67.30;;;;;;6239278;28;20046;-79
2023/06/04 03:43:23;;;;;;;3.78;1.80;;;14.40;67.30;;;;;;6229236;28;20054;-78
2023/06/04 03:46:28;;;;;;;6.68;2.20;;;14.40;67.20;;;;;;6230147;28;20061;-78
2023/06/04 03:49:30;;;;;;;8.85;2.20;;;14.40;67.00;;;;;;6228174;28;20050;-78
2023/06/04 03:52:33;;;;;;;3.35;1.33;;;14.40;67.00;;;;;;6227337;28;20505;-79
2023/06/04 03:55:35;;;;;;;3.42;1.95;;;14.50;67.00;;;;;;6227596;28;20241;-79
2023/06/04 03:58:37;;;;;;;2.97;1.77;;;14.50;66.90;;;;;;6228627;28;20053;-79
2023/06/04 04:01:39;;;;;;;5.15;2.40;;;14.50;66.90;;;;;;6229302;28;20046;-79
2023/06/04 04:04:40;;;;;;;2.30;1.65;;;14.50;66.90;;;;;;6228800;28;20160;-78
2023/06/04 04:07:44;;;;;;;2.78;1.75;;;14.50;67.00;;;;;;6228256;28;20722;-78
2023/06/04 04:10:45;;;;;;;6.45;2.28;;;14.60;67.00;;;;;;6228899;28;20053;-80
2023/06/04 04:13:47;;;;;;;2.17;1.88;;;14.60;66.90;;;;;;6229785;28;20073;-78
2023/06/04 04:16:49;;;;;;;2.33;1.65;;;14.70;66.90;;;;;;6228298;28;20050;-79
2023/06/04 04:19:51;;;;;;;2.28;1.92;;;14.80;67.00;;;;;;6228730;28;20046;-79
2023/06/04 04:22:54;;;;;;;3.42;1.67;;;14.80;66.40;;;;;;6227535;28;20046;-78
2023/06/04 04:25:58;;;;;;;3.33;1.98;;;15.00;66.20;;;;;;6226663;28;20144;-78
2023/06/04 04:28:59;;;;;;;2.75;1.77;;;15.10;66.00;;;;;;6225842;28;20042;-78
2023/06/04 04:32:09;;;;;;;3.47;2.65;;;15.20;65.60;;;;;;6226418;28;20042;-81
2023/06/04 04:35:11;;;;;;;3.38;2.08;;;15.40;65.40;;;;;;6226263;28;20049;-79
2023/06/04 04:38:17;;;;;;;2.45;1.60;;;15.50;65.10;;;;;;6225754;28;20046;-79
2023/06/04 04:41:18;;;;;;;3.90;1.77;;;15.50;64.70;;;;;;6225901;28;20432;-79
2023/06/04 04:44:20;;;;;;;6.45;1.58;;;15.90;65.00;;;;;;6225441;28;20050;-77
2023/06/04 04:47:22;;;;;;;2.35;2.10;;;16.60;64.10;;;;;;6224898;28;20058;-80
2023/06/04 04:50:24;;;;;;;4.70;1.88;;;17.30;62.60;;;;;;6227427;28;20052;-80
2023/06/04 04:53:28;;;;;;;3.83;1.70;;;17.80;61.20;;;;;;6227108;28;20053;-79
2023/06/04 04:56:30;;;;;;;3.20;1.35;;;18.10;60.70;;;;;;6225727;28;20578;-81
2023/06/04 04:59:31;;;;;;;1.83;1.20;;;18.80;59.30;;;;;;6225669;28;20065;-80
2023/06/04 05:02:33;;;;;;;2.72;1.70;;;19.40;58.10;;;;;;6225782;28;20050;-80
2023/06/04 05:05:35;;;;;;;2.95;2.22;;;19.90;56.80;;;;;;6224856;28;20054;-81
2023/06/04 05:08:38;;;;;;;2.13;1.35;;;19.70;55.50;;;;;;6212499;28;20058;-80
2023/06/04 05:11:39;;;;;;;2.25;1.60;;;19.20;55.60;;;;;;6201614;28;20049;-80
2023/06/04 05:14:41;;;;;;;3.13;1.63;;;18.60;56.30;;;;;;6202608;28;20058;-79
2023/06/04 05:17:43;;;;;;;3.63;1.85;;;18.30;57.20;;;;;;6202606;28;20469;-78
2023/06/04 05:20:45;;;;;;;2.63;1.45;;;18.80;57.00;;;;;;6202162;28;20053;-79
2023/06/04 05:23:48;;;;;;;4.10;1.90;;;19.50;55.80;;;;;;6202146;28;20081;-78
2023/06/04 05:26:50;;;;;;;1.95;1.73;;;20.10;54.80;;;;;;6200810;28;20050;-80
2023/06/04 05:29:51;;;;;;;4.93;3.00;;;20.60;54.30;;;;;;6200502;28;20449;-79
2023/06/04 05:32:53;;;;;;;9.05;2.25;;;21.20;53.30;;;;;;6200500;28;20061;-80
2023/06/04 05:35:57;;;;;;;3.35;2.08;;;21.40;52.30;;;;;;6200866;28;20043;-79
2023/06/04 05:39:00;;;;;;;2.38;1.60;;;21.60;51.60;;;;;;6201276;28;20198;-78
2023/06/04 05:42:02;;;;;;;5.32;1.42;;;21.80;51.10;;;;;;6223481;28;20060;-79
2023/06/04 05:45:04;;;;;;;4.60;1.30;;;22.00;51.00;;;;;;6224765;28;20057;-80
2023/06/04 05:48:06;;;;;;;7.20;1.80;;;22.30;50.60;;;;;;6224450;28;20536;-80
2023/06/04 05:51:08;;;;;;;3.00;1.48;;;22.80;49.40;;;;;;6224923;28;20192;-81
2023/06/04 05:54:11;;;;;;;3.08;1.38;;;22.80;49.20;;;;;;6224051;28;20076;-82
2023/06/04 05:57:13;;;;;;;7.78;1.92;;;23.20;48.60;;;;;;6224195;28;20046;-81
2023/06/04 06:00:15;;;;;;;3.28;1.27;;;23.50;48.10;;;;;;6224157;28;20057;-79
2023/06/04 06:03:17;;;;;;;2.58;1.33;;;23.90;46.90;;;;;;6227314;28;20132;-79
2023/06/04 06:06:20;;;;;;;1.77;1.20;;;24.00;46.50;;;;;;6226079;28;20064;-79
2023/06/04 06:09:23;;;;;;;1.50;1.40;;;23.90;46.00;;;;;;6224577;28;20459;-79
2023/06/04 06:12:25;;;;;;;3.22;1.77;;;23.70;46.20;;;;;;6225376;28;20045;-81
2023/06/04 06:15:27;;;;;;;2.88;1.92;;;23.80;46.10;;;;;;6225578;28;20587;-81
2023/06/04 06:18:28;;;;;;;3.47;1.88;;;23.80;46.50;;;;;;6225911;28;20052;-79
2023/06/04 06:21:30;;;;;;;2.40;1.65;;;24.30;46.30;;;;;;6225601;28;20053;-79
2023/06/04 06:24:33;;;;;;;2.15;1.95;;;24.70;44.90;;;;;;6224066;28;20053;-78
2023/06/04 06:27:36;;;;;;;5.93;1.60;;;24.50;44.60;;;;;;6214040;28;20129;-79
2023/06/04 06:30:37;;;;;;;2.45;1.17;;;24.30;44.60;;;;;;6235461;28;20045;-78
2023/06/04 06:33:41;;;;;;;1.88;1.48;;;24.10;45.00;;;;;;6213765;28;20432;-79
2023/06/04 06:36:44;;;;;;;5.05;1.92;;;24.00;44.70;;;;;;6223143;28;20053;-81
2023/06/04 06:39:47;;;;;;;3.00;1.25;;;23.70;45.00;;;;;;6224402;28;20120;-81
2023/06/04 06:42:50;;;;;;;13.35;2.65;;;23.60;44.90;;;;;;6226038;28;20054;-81
2023/06/04 06:45:52;;;;;;;3.63;1.38;;;23.50;45.40;;;;;;6228527;28;20054;-79
2023/06/04 06:48:54;;;;;;;2.80;1.63;;;23.00;45.60;;;;;;6229161;28;20041;-79
2023/06/04 06:51:55;;;;;;;2.38;1.75;;;22.20;46.60;;;;;;6224393;28;20058;-79
2023/06/04 06:54:58;;;;;;;4.43;1.65;;;21.40;48.10;;;;;;6230350;28;20050;-79
2023/06/04 06:58:00;;;;;;;3.85;1.55;;;20.90;49.40;;;;;;6223595;28;20477;-80
2023/06/04 07:01:02;;;;;;;2.08;1.60;;;20.60;50.00;;;;;;6218215;28;20054;-82
2023/06/04 07:04:04;;;;;;;4.85;1.75;;;20.30;50.70;;;;;;6200932;28;20051;-81
2023/06/04 07:07:07;;;;;;;2.40;1.90;;;20.10;51.20;;;;;;6201056;28;20461;-79
2023/06/04 07:10:11;;;;;;;7.25;2.35;;;19.90;51.60;;;;;;6218036;28;20060;-79
2023/06/04 07:13:12;;;;;;;3.00;1.92;;;20.10;51.80;;;;;;6215731;28;20041;-80
2023/06/04 07:16:14;;;;;;;4.88;2.28;;;20.20;52.10;;;;;;6218274;28;20133;-79
2023/06/04 07:19:16;;;;;;;3.70;2.03;;;20.50;51.90;;;;;;6221166;28;22721;-79
2023/06/04 07:22:18;;;;;;;3.25;2.05;;;20.50;52.10;;;;;;6217907;28;20065;-78
2023/06/04 07:25:23;;;;;;;3.42;1.85;;;20.60;52.20;;;;;;6217890;28;20053;-78
2023/06/04 07:28:25;;;;;;;2.50;1.70;;;20.80;52.00;;;;;;6216831;28;20049;-77
2023/06/04 07:31:26;;;;;;;3.25;2.17;;;21.50;51.80;;;;;;6217383;28;20046;-77
2023/06/04 07:34:28;;;;;;;5.18;1.50;;;22.60;50.80;;;;;;6219106;28;20058;-78
2023/06/04 07:37:30;;;;;;;1.98;1.50;;;23.80;49.70;;;;;;6217945;28;20057;-78
2023/06/04 07:40:33;;;;;;;3.05;1.70;;;24.70;47.60;;;;;;6221012;28;20083;-79
2023/06/04 07:43:35;;;;;;;2.28;1.63;;;25.20;46.80;;;;;;6217992;28;20056;-77
2023/06/04 07:46:37;;;;;;;6.15;1.70;;;25.90;46.40;;;;;;6218884;28;20045;-78
2023/06/04 07:49:38;;;;;;;2.63;1.48;;;26.30;45.20;;;;;;6214108;28;20049;-76
2023/06/04 07:52:40;;;;;;;5.25;2.88;;;26.80;44.70;;;;;;6210719;28;20061;-76
2023/06/04 07:55:43;;;;;;;2.92;2.30;;;27.00;44.10;;;;;;6216667;28;20060;-81
2023/06/04 07:58:46;;;;;;;4.47;2.72;;;27.10;43.50;;;;;;6217916;28;20057;-80
2023/06/04 08:01:48;;;;;;;4.57;2.00;;;27.00;43.40;;;;;;6220758;28;20042;-80
2023/06/04 08:04:50;;;;;;;1.95;1.42;;;26.90;43.30;;;;;;6216251;28;20057;-81
2023/06/04 08:07:53;;;;;;;2.65;2.28;;;26.70;43.00;;;;;;6215096;28;23179;-80
2023/06/04 08:10:56;;;;;;;4.63;2.38;;;26.40;43.60;;;;;;6220348;28;20050;-79
2023/06/04 08:13:58;;;;;;;2.80;1.65;;;26.70;44.10;;;;;;6220428;28;20057;-81
2023/06/04 08:16:59;;;;;;;3.25;1.60;;;27.00;43.30;;;;;;6237978;28;20064;-79
2023/06/04 08:20:01;;;;;;;3.42;1.52;;;27.00;43.00;;;;;;6241501;28;20041;-79
2023/06/04 08:23:03;;;;;;;3.20;1.50;;;27.20;43.00;;;;;;6219267;28;20062;-80
2023/06/04 08:26:07;;;;;;;5.53;2.40;;;27.30;42.80;;;;;;6241795;28;20412;-78
2023/06/04 08:29:09;;;;;;;8.25;1.40;;;27.40;42.30;;;;;;6240129;28;20049;-81
2023/06/04 08:32:10;;;;;;;5.78;1.88;;;27.20;42.20;;;;;;6248653;28;20050;-82
2023/06/04 08:35:12;;;;;;;2.72;1.60;;;27.30;42.40;;;;;;6245446;28;20100;-80
2023/06/04 08:38:14;;;;;;;3.92;1.73;;;27.60;42.40;;;;;;6246110;28;20049;-78
2023/06/04 08:41:22;;;;;;;2.53;1.77;;;27.40;42.00;;;;;;6246009;28;20041;-81
2023/06/04 08:44:23;;;;;;;3.00;1.80;;;26.90;42.40;;;;;;6247896;28;21119;-79
2023/06/04 08:47:26;;;;;;;2.70;1.60;;;26.90;42.40;;;;;;6239764;28;21235;-80
2023/06/04 08:50:27;;;;;;;2.13;1.38;;;26.80;42.90;;;;;;6241277;28;20049;-80
2023/06/04 08:53:31;;;;;;;2.97;1.63;;;26.80;43.20;;;;;;6243261;28;20053;-80
2023/06/04 08:56:34;;;;;;;2.67;1.90;;;26.80;43.50;;;;;;6240021;28;20467;-80
2023/06/04 08:59:37;;;;;;;3.97;2.63;;;26.90;43.70;;;;;;6239924;28;20064;-82
2023/06/04 09:02:39;;;;;;;4.32;2.67;;;26.80;43.40;;;;;;6247935;28;20053;-78
2023/06/04 09:05:45;;;;;;;5.35;3.08;;;26.60;43.60;;;;;;6248515;28;20056;-77
2023/06/04 09:08:47;;;;;;;7.10;1.60;;;26.70;43.90;;;;;;6246067;28;20399;-78
2023/06/04 09:11:52;;;;;;;4.25;3.08;;;27.20;44.00;;;;;;6249873;28;20480;-78
2023/06/04 09:14:54;;;;;;;7.13;3.38;;;27.50;43.30;;;;;;6246210;28;20138;-78
2023/06/04 09:17:56;;;;;;;3.30;1.95;;;27.50;42.70;;;;;;6247242;28;20041;-78
2023/06/04 09:21:05;;;;;;;5.82;2.15;;;26.90;43.20;;;;;;6251517;28;20052;-77
2023/06/04 09:24:10;;;;;;;4.82;2.33;;;26.70;43.80;;;;;;6247266;28;20060;-79
2023/06/04 09:27:13;;;;;;;2.72;2.10;;;26.60;43.70;;;;;;6253199;28;20414;-77
2023/06/04 09:30:15;;;;;;;9.15;3.40;;;26.60;44.10;;;;;;6247523;28;20500;-78
2023/06/04 09:33:17;;;;;;;6.53;1.98;;;26.80;44.50;;;;;;6248940;28;20050;-77
2023/06/04 09:36:18;;;;;;;10.27;2.35;;;27.30;44.00;;;;;;6253585;28;20052;-78
2023/06/04 09:39:20;;;;;;;4.93;2.63;;;27.40;43.30;;;;;;6251415;28;20049;-79
2023/06/04 09:42:24;;;;;;;2.78;2.00;;;27.40;43.30;;;;;;6246251;28;20068;-78
2023/06/04 09:45:29;;;;;;;2.75;2.08;;;27.50;43.40;;;;;;6252546;28;20056;-78
2023/06/04 09:48:31;;;;;;;1.77;1.33;;;27.60;42.80;;;;;;6251461;28;20055;-78
2023/06/04 09:51:33;;;;;;;3.08;1.85;;;27.40;42.60;;;;;;6251395;28;20056;-78
2023/06/04 09:54:37;;;;;;;11.55;3.25;;;27.20;42.90;;;;;;6249445;28;20049;-78
2023/06/04 09:57:41;;;;;;;4.65;2.10;;;27.30;42.60;;;;;;6249728;28;20584;-78
2023/06/04 10:00:45;;;;;;;3.47;2.42;;;27.20;42.40;;;;;;6250263;28;20048;-79
2023/06/04 10:03:51;;;;;;;3.10;2.13;;;27.20;42.60;;;;;;6248324;28;20051;-79
2023/06/04 10:06:53;;;;;;;8.10;1.88;;;27.00;42.60;;;;;;6253206;28;20606;-77
2023/06/04 10:09:55;;;;;;;5.28;2.35;;;27.10;42.60;;;;;;6248792;28;20056;-78
2023/06/04 10:13:05;;;;;;;3.80;2.50;;;27.10;42.20;;;;;;6246878;28;20052;-78
2023/06/04 10:16:08;;;;;;;4.20;1.92;;;27.20;42.40;;;;;;6257839;28;20049;-80
2023/06/04 10:19:11;;;;;;;2.90;1.70;;;27.20;42.30;;;;;;6250779;28;20056;-78
2023/06/04 10:22:13;;;;;;;3.50;1.95;;;27.40;42.20;;;;;;6247848;28;20060;-79
2023/06/04 10:25:16;;;;;;;6.00;1.60;;;27.30;42.40;;;;;;6249058;28;20049;-79
2023/06/04 10:28:20;;;;;;;3.85;2.55;;;27.30;42.00;;;;;;6257551;28;20037;-78
2023/06/04 10:31:22;;;;;;;3.10;1.98;;;27.50;41.60;;;;;;6249058;28;20049;-78
2023/06/04 10:34:24;;;;;;;2.15;1.88;;;27.40;41.80;;;;;;6249329;28;20533;-79
2023/06/04 10:37:29;;;;;;;6.72;1.90;;;27.70;41.70;;;;;;6249589;28;21417;-80
2023/06/04 10:40:33;;;;;;;2.60;1.77;;;28.10;41.60;;;;;;6246913;28;20041;-80
2023/06/04 10:43:36;;;;;;;5.80;2.10;;;28.60;41.10;;;;;;6255618;28;20072;-79
2023/06/04 10:46:42;;;;;;;3.13;2.22;;;28.90;40.50;;;;;;6255241;28;20053;-80
2023/06/04 10:49:44;;;;;;;2.30;1.75;;;29.10;40.20;;;;;;6254193;28;20055;-80
2023/06/04 10:52:53;;;;;;;3.28;1.90;;;29.20;40.20;;;;;;6254111;28;20487;-80
2023/06/04 10:55:54;;;;;;;5.65;1.70;;;29.50;40.10;;;;;;6249908;28;20053;-80
2023/06/04 10:58:58;;;;;;;8.48;2.75;;;29.80;39.60;;;;;;6251981;28;20072;-80
2023/06/04 11:02:06;;;;;;;3.22;1.98;;;30.10;39.30;;;;;;6252439;28;20045;-80
2023/06/04 11:05:09;;;;;;;4.88;1.92;;;30.30;38.80;;;;;;6253345;28;20048;-80
2023/06/04 11:08:13;;;;;;;2.38;1.85;;;30.30;38.40;;;;;;6251731;28;20041;-80
2023/06/04 11:11:15;;;;;;;5.28;1.98;;;29.80;38.90;;;;;;6249955;28;20563;-79
2023/06/04 11:14:18;;;;;;;3.20;1.95;;;29.70;38.90;;;;;;6253048;28;20049;-78
2023/06/04 11:17:20;;;;;;;9.38;2.20;;;29.80;38.40;;;;;;6253985;28;20523;-79
2023/06/04 11:20:23;;;;;;;4.13;1.67;;;29.70;38.70;;;;;;6252397;28;20053;-81
2023/06/04 11:23:25;;;;;;;2.00;1.75;;;30.00;38.60;;;;;;6251899;28;20052;-79
2023/06/04 11:26:32;;;;;;;7.72;3.08;;;30.30;38.30;;;;;;6252053;28;20049;-79
2023/06/04 11:29:35;;;;;;;3.33;1.80;;;30.40;38.10;;;;;;6254164;28;20483;-79
2023/06/04 11:32:39;;;;;;;4.47;2.17;;;30.50;37.70;;;;;;6250335;28;20053;-77
2023/06/04 11:35:42;;;;;;;6.57;2.00;;;30.40;37.10;;;;;;6250959;28;20045;-78
2023/06/04 11:38:55;;;;;;;3.75;2.70;;;29.90;37.10;;;;;;6252154;28;20049;-79
2023/06/04 11:41:59;;;;;;;4.88;1.70;;;30.00;37.00;;;;;;6254237;28;20079;-80
2023/06/04 11:45:02;;;;;;;3.00;2.22;;;29.80;36.70;;;;;;6253068;28;20053;-77
2023/06/04 11:48:06;;;;;;;2.67;2.28;;;29.40;36.60;;;;;;6247987;28;20044;-80
2023/06/04 11:51:09;;;;;;;5.13;2.08;;;29.40;36.80;;;;;;6255209;28;20057;-78
2023/06/04 11:54:11;;;;;;;5.97;2.78;;;29.40;37.10;;;;;;6225635;28;20046;-80
2023/06/04 11:57:13;;;;;;;2.25;1.90;;;29.60;37.30;;;;;;6227766;28;20057;-79
2023/06/04 12:00:19;;;;;;;4.35;3.10;;;29.80;36.50;;;;;;6223738;28;20049;-79
2023/06/04 12:03:20;;;;;;;4.05;2.50;;;30.00;36.70;;;;;;6227855;28;20127;-79
2023/06/04 12:06:22;;;;;;;3.28;2.75;;;30.30;36.10;;;;;;6241974;28;20051;-80
2023/06/04 12:09:27;;;;;;;5.63;3.03;;;30.30;35.80;;;;;;6238917;28;20045;-79
2023/06/04 12:12:28;;;;;;;5.32;2.45;;;30.20;35.30;;;;;;6237893;28;20515;-80
2023/06/04 12:15:31;;;;;;;8.32;2.17;;;30.30;35.30;;;;;;6240430;28;20053;-79
2023/06/04 12:18:35;;;;;;;5.53;2.03;;;30.40;35.40;;;;;;6242428;28;20049;-81
2023/06/04 12:21:38;;;;;;;4.13;2.45;;;30.50;36.00;;;;;;6249722;28;20055;-77
2023/06/04 12:24:48;;;;;;;3.83;2.47;;;30.70;35.20;;;;;;6248891;28;20045;-77
2023/06/04 12:27:49;;;;;;;4.45;2.40;;;30.70;35.50;;;;;;6251132;28;20049;-80
2023/06/04 12:30:52;;;;;;;3.30;2.15;;;30.80;34.90;;;;;;6249101;28;20068;-81
2023/06/04 12:33:54;;;;;;;4.55;2.95;;;30.70;34.80;;;;;;6249477;28;20068;-79
2023/06/04 12:36:56;;;;;;;3.67;2.47;;;30.60;34.90;;;;;;6253246;28;20586;-80
2023/06/04 12:39:58;;;;;;;7.32;2.47;;;30.40;34.50;;;;;;6249342;28;20408;-79
2023/06/04 12:42:59;;;;;;;9.07;4.63;;;30.10;34.70;;;;;;6250609;28;20064;-78
2023/06/04 12:46:02;;;;;;;9.23;2.63;;;30.10;35.20;;;;;;6250494;28;20550;-80
2023/06/04 12:49:05;;;;;;;4.28;2.25;;;30.20;35.10;;;;;;6248841;28;20033;-79
2023/06/04 12:52:07;;;;;;;5.00;2.70;;;30.40;35.00;;;;;;6249529;28;20522;-78
2023/06/04 12:55:09;;;;;;;5.28;2.50;;;30.50;34.60;;;;;;6252883;28;20488;-78
2023/06/04 12:58:11;;;;;;;3.88;2.40;;;30.30;34.60;;;;;;6228785;28;20054;-78
2023/06/04 13:01:15;;;;;;;4.32;2.50;;;30.30;34.90;;;;;;6221105;28;20423;-79
2023/06/04 13:04:17;;;;;;;6.35;2.78;;;30.70;34.40;;;;;;6219887;28;20065;-80
2023/06/04 13:07:18;;;;;;;4.95;2.50;;;30.60;34.30;;;;;;6214638;28;20038;-79
2023/06/04 13:10:20;;;;;;;4.13;2.95;;;30.30;34.30;;;;;;6213063;28;20041;-79
2023/06/04 13:13:22;;;;;;;3.60;2.25;;;30.00;34.90;;;;;;6229461;28;20538;-80
2023/06/04 13:16:25;;;;;;;5.68;3.33;;;30.10;34.80;;;;;;6237702;28;20049;-80
2023/06/04 13:19:27;;;;;;;2.45;2.25;;;30.10;34.80;;;;;;6237012;28;20507;-80
2023/06/04 13:22:29;;;;;;;3.17;2.30;;;30.40;35.10;;;;;;6245904;28;20057;-78
2023/06/04 13:25:32;;;;;;;3.13;2.45;;;30.60;34.80;;;;;;6240719;28;20045;-79
2023/06/04 13:28:34;;;;;;;4.68;2.78;;;30.50;34.30;;;;;;6240011;28;20504;-76
2023/06/04 13:31:39;;;;;;;2.25;1.85;;;30.10;34.60;;;;;;6239696;28;20057;-79
2023/06/04 13:34:40;;;;;;;3.63;2.08;;;30.10;35.10;;;;;;6239457;28;20046;-78
2023/06/04 13:37:42;;;;;;;4.50;2.40;;;30.30;35.00;;;;;;6239218;28;20053;-80
2023/06/04 13:40:44;;;;;;;3.53;2.75;;;30.30;35.20;;;;;;6239362;28;20053;-78
2023/06/04 13:43:46;;;;;;;3.60;2.20;;;30.60;35.30;;;;;;6239117;28;20042;-77
2023/06/04 13:46:49;;;;;;;4.60;2.35;;;31.00;35.50;;;;;;6236864;28;20041;-76
2023/06/04 13:49:51;;;;;;;7.78;2.95;;;31.30;35.20;;;;;;6237338;28;20049;-77
2023/06/04 13:52:52;;;;;;;4.85;2.75;;;30.90;35.00;;;;;;6239346;28;20042;-79
2023/06/04 13:55:57;;;;;;;6.28;3.17;;;30.40;35.00;;;;;;6234833;28;20146;-79
2023/06/04 13:58:59;;;;;;;5.88;3.90;;;30.00;35.40;;;;;;6237483;28;20191;-78
2023/06/04 14:02:02;;;;;;;5.47;2.65;;;30.00;35.70;;;;;;6237490;28;20045;-76
2023/06/04 14:05:05;;;;;;;5.43;3.20;;;30.00;35.50;;;;;;6236864;28;20049;-79
2023/06/04 14:08:07;;;;;;;3.00;2.22;;;29.90;35.60;;;;;;6241726;28;20045;-79
2023/06/04 14:11:08;;;;;;;4.35;2.63;;;30.10;35.30;;;;;;6249854;28;20059;-79
2023/06/04 14:14:10;;;;;;;3.97;3.08;;;30.00;35.20;;;;;;6245755;28;20049;-79
2023/06/04 14:17:14;;;;;;;2.58;2.28;;;30.00;35.40;;;;;;6246543;28;20057;-75
2023/06/04 14:20:15;;;;;;;8.10;2.50;;;30.20;35.30;;;;;;6247350;28;20045;-77
2023/06/04 14:23:18;;;;;;;4.32;2.47;;;30.30;35.20;;;;;;6245478;28;20515;-79
2023/06/04 14:26:20;;;;;;;2.88;2.58;;;30.30;35.00;;;;;;6222954;28;20498;-77
2023/06/04 14:29:21;;;;;;;3.25;2.80;;;30.50;34.90;;;;;;6244001;28;20038;-79
2023/06/04 14:32:25;;;;;;;3.22;2.30;;;30.70;34.80;;;;;;6243069;28;20047;-77
2023/06/04 14:35:26;;;;;;;3.58;2.60;;;30.80;34.90;;;;;;6252493;28;20056;-78
2023/06/04 14:38:28;;;;;;;7.68;3.08;;;30.60;34.50;;;;;;6245335;28;20050;-79
2023/06/04 14:41:30;;;;;;;4.80;3.28;;;30.30;33.90;;;;;;6248201;28;20044;-78
2023/06/04 14:44:31;;;;;;;3.17;2.70;;;29.90;34.30;;;;;;6252001;28;20044;-79
2023/06/04 14:47:34;;;;;;;3.25;2.47;;;30.00;34.10;;;;;;6249589;28;20053;-78
2023/06/04 14:50:36;;;;;;;4.32;3.05;;;30.00;33.30;;;;;;6247029;28;20125;-78
2023/06/04 14:53:39;;;;;;;7.22;3.38;;;30.00;33.10;;;;;;6246497;28;21645;-77
2023/06/04 14:56:40;;;;;;;5.35;2.78;;;30.10;32.90;;;;;;6252659;28;20082;-78
2023/06/04 14:59:43;;;;;;;3.58;2.88;;;30.10;32.90;;;;;;6251073;28;20224;-79
2023/06/04 15:02:46;;;;;;;3.75;2.90;;;29.90;33.00;;;;;;6249837;28;20064;-80
2023/06/04 15:05:48;;;;;;;6.35;4.72;;;29.70;33.30;;;;;;6243751;28;22901;-78
2023/06/04 15:08:49;;;;;;;4.55;3.38;;;29.40;32.90;;;;;;6247638;28;20056;-77
2023/06/04 15:11:51;;;;;;;4.97;3.78;;;29.30;32.60;;;;;;6248057;28;20058;-78
2023/06/04 15:14:53;;;;;;;5.35;2.78;;;29.20;32.70;;;;;;6248736;28;20053;-77
2023/06/04 15:17:56;;;;;;;5.05;3.95;;;29.20;32.60;;;;;;6248877;28;20049;-78
2023/06/04 15:20:57;;;;;;;2.47;2.28;;;29.20;32.10;;;;;;6248165;28;20057;-77
2023/06/04 15:23:59;;;;;;;6.43;4.20;;;29.30;32.10;;;;;;6229943;28;20046;-79
2023/06/04 15:27:01;;;;;;;3.30;2.63;;;29.40;32.50;;;;;;6262348;28;20519;-79
2023/06/04 15:30:03;;;;;;;6.97;3.38;;;29.30;32.60;;;;;;6254427;28;20595;-79
2023/06/04 15:33:06;;;;;;;5.07;4.05;;;29.20;32.70;;;;;;6252163;28;20084;-77
2023/06/04 15:36:08;;;;;;;11.10;5.72;;;29.10;32.70;;;;;;6251687;28;20061;-78
2023/06/04 15:39:09;;;;;;;3.22;2.78;;;29.20;32.70;;;;;;6252175;28;20056;-78
2023/06/04 15:42:12;;;;;;;4.25;3.85;;;29.20;32.60;;;;;;6254256;28;20049;-79
2023/06/04 15:45:14;;;;;;;5.65;4.72;;;29.40;32.50;;;;;;6249785;28;20041;-77
2023/06/04 15:48:18;;;;;;;3.47;2.63;;;29.40;32.70;;;;;;6250385;28;20041;-78